YMST weather

Millstream Station Field
Chichester National Park, Western Australia, Australia

Public forecast

Using degrees Celsius for public forecast. Weather courtesy of forecast.io.

Closest aviation weather report (METAR) to Millstream Station Field

Closest report is Paraburdoo Airport, 99.9 nm (185.1 km) SSE. Retrieved 2020/04/09 11:00 UTC (38 minutes ago):

YPBO 091100Z AUTO 18005KT 9999 // NCD 32/08 Q1014

Closest aviation forecast (TAF) to Millstream Station Field

Closest forecast is Port Hedland International Airport, 114.4 nm (211.9 km) NE. Retrieved 2020/04/09 06:36 UTC (5 hours ago):

TAF YPPD 090516Z 0906/1006 32010KT CAVOK FM091300 19004KT CAVOK FM100000 10010KT CAVOK FM100500 06012KT CAVOK